Time;durP1;ratioP1;P1;durP2;ratioP2;P2;SDS_P1;SDS_P2;PMS_P1;PMS_P2;Temp;Humidity;BMP_temperature;BMP_pressure;BME280_temperature;BME280_humidity;BME280_pressure;Samples;Min_cycle;Max_cycle;Signal;HPM_P1;HPM_P2
2022/11/12 00:01:10;;;;;;;;;;;;;;;12.57;61.02;96536.63;5055876;28;967;-63
2022/11/12 00:03:36;;;;;;;;;;;;;;;12.54;61.37;96535.09;5055701;28;974;-63
2022/11/12 00:06:03;;;;;;;;;;;;;;;12.56;61.14;96533.09;5056041;28;1033;-63
2022/11/12 00:08:29;;;;;;;;;;;;;;;12.61;60.85;96530.00;5055560;28;1910;-63
2022/11/12 00:10:55;;;;;;;;;;;;;;;12.56;61.26;96516.13;5055902;28;1041;-63
2022/11/12 00:13:21;;;;;;;;;;;;;;;12.54;61.86;96513.63;5055705;28;1025;-63
2022/11/12 00:15:47;;;;;;;;;;;;;;;12.57;61.59;96513.31;5055577;28;1042;-63
2022/11/12 00:18:13;;;;;;;;;;;;;;;12.53;61.74;96521.81;5055572;28;1110;-63
2022/11/12 00:20:40;;;;;;;;;;;;;;;12.47;62.21;96529.41;5055818;28;974;-63
2022/11/12 00:23:06;;;;;;;;;;;;;;;12.52;62.01;96510.22;5055671;28;1045;-63
2022/11/12 00:25:32;;;;;;;;;;;;;;;12.58;61.59;96504.31;5055530;28;1207;-63
2022/11/12 00:28:00;;;;;;;;;;;;;;;12.56;61.49;96494.69;5055472;28;1996;-63
2022/11/12 00:30:26;;;;;;;;;;;;;;;12.44;61.68;96502.84;5055249;28;963;-63
2022/11/12 00:32:52;;;;;;;;;;;;;;;12.40;61.85;96512.19;5055510;28;1006;-63
2022/11/12 00:35:18;;;;;;;;;;;;;;;12.44;61.26;96505.53;5055207;28;911;-63
2022/11/12 00:37:44;;;;;;;;;;;;;;;12.43;61.34;96498.50;5055259;28;1139;-63
2022/11/12 00:40:10;;;;;;;;;;;;;;;12.29;62.25;96505.13;5054809;28;1078;-63
2022/11/12 00:42:36;;;;;;;;;;;;;;;12.39;61.49;96498.94;5054997;28;1055;-63
2022/11/12 00:45:02;;;;;;;;;;;;;;;12.46;61.37;96505.41;5055045;28;1049;-63
2022/11/12 00:47:28;;;;;;;;;;;;;;;12.47;61.20;96501.75;5054699;28;1977;-63
2022/11/12 00:49:54;;;;;;;;;;;;;;;12.52;61.10;96506.69;5055203;28;1049;-63
2022/11/12 00:52:20;;;;;;;;;;;;;;;12.53;60.92;96497.66;5055030;28;1060;-63
2022/11/12 00:54:46;;;;;;;;;;;;;;;12.56;60.76;96495.53;5054907;28;1764;-63
2022/11/12 00:57:12;;;;;;;;;;;;;;;12.56;60.83;96494.69;5054931;28;966;-63
2022/11/12 00:59:38;;;;;;;;;;;;;;;12.59;60.92;96489.88;5054802;28;1021;-63
2022/11/12 01:02:04;;;;;;;;;;;;;;;12.59;60.86;96486.34;5054734;28;982;-63
2022/11/12 01:04:30;;;;;;;;;;;;;;;12.55;61.13;96487.63;5054628;28;1065;-63
2022/11/12 01:06:56;;;;;;;;;;;;;;;12.44;61.59;96488.59;5055016;28;985;-63
2022/11/12 01:09:22;;;;;;;;;;;;;;;12.43;62.11;96489.59;5054557;28;1908;-63
2022/11/12 01:11:48;;;;;;;;;;;;;;;12.49;61.83;96492.56;5054667;28;983;-63
2022/11/12 01:14:14;;;;;;;;;;;;;;;12.53;61.16;96490.44;5054506;28;1076;-63
2022/11/12 01:16:41;;;;;;;;;;;;;;;12.54;61.65;96484.09;5054383;28;1100;-63
2022/11/12 01:19:10;;;;;;;;;;;;;;;12.57;61.22;96478.44;5054408;28;1105;-63
2022/11/12 01:21:37;;;;;;;;;;;;;;;12.46;61.51;96474.09;5054435;28;1065;-62
2022/11/12 01:24:03;;;;;;;;;;;;;;;12.44;61.99;96476.03;5054363;28;1013;-63
2022/11/12 01:26:29;;;;;;;;;;;;;;;12.33;61.80;96486.06;5054182;28;1066;-63
2022/11/12 01:28:56;;;;;;;;;;;;;;;12.33;61.97;96480.69;5054160;28;1985;-63
2022/11/12 01:31:24;;;;;;;;;;;;;;;12.37;61.85;96472.25;5054105;28;1026;-63
2022/11/12 01:33:54;;;;;;;;;;;;;;;12.41;61.93;96464.75;5054352;28;995;-63
2022/11/12 01:36:21;;;;;;;;;;;;;;;12.42;62.11;96455.72;5054146;28;1049;-63
2022/11/12 01:38:48;;;;;;;;;;;;;;;12.45;61.96;96455.44;5053970;28;1147;-63
2022/11/12 01:41:15;;;;;;;;;;;;;;;12.45;61.50;96458.97;5054016;28;1042;-63
2022/11/12 01:43:41;;;;;;;;;;;;;;;12.49;61.68;96463.06;5053619;28;1045;-63
2022/11/12 01:46:27;;;;;;;;;;;;;;;12.49;60.91;96455.00;5054025;28;1031;-63
2022/11/12 01:49:14;;;;;;;;;;;;;;;12.40;61.36;96455.00;5053991;28;1906;-63
2022/11/12 01:51:43;;;;;;;;;;;;;;;12.33;61.72;96452.06;5053136;28;1150;-63
2022/11/12 01:54:12;;;;;;;;;;;;;;;12.36;62.02;96453.59;5053612;28;1756;-63
2022/11/12 01:56:38;;;;;;;;;;;;;;;12.37;62.63;96449.91;5053579;28;1046;-63
2022/11/12 01:59:07;;;;;;;;;;;;;;;12.41;62.32;96451.34;5053979;28;804;-63
2022/11/12 02:01:35;;;;;;;;;;;;;;;12.32;62.78;96446.81;5053567;28;1070;-63
2022/11/12 02:04:01;;;;;;;;;;;;;;;12.36;62.75;96453.59;5053599;28;1041;-63
2022/11/12 02:06:28;;;;;;;;;;;;;;;12.35;62.33;96449.22;5053600;28;1057;-63
2022/11/12 02:08:54;;;;;;;;;;;;;;;12.28;62.76;96441.72;5053463;28;1906;-63
2022/11/12 02:11:20;;;;;;;;;;;;;;;12.24;63.02;96434.13;5053658;28;965;-63
2022/11/12 02:13:59;;;;;;;;;;;;;;;12.26;63.31;96440.19;5053700;28;1014;-63
2022/11/12 02:16:29;;;;;;;;;;;;;;;12.26;63.16;96441.03;5053336;28;1125;-63
2022/11/12 02:18:55;;;;;;;;;;;;;;;12.36;62.98;96440.19;5053383;28;1128;-63
2022/11/12 02:21:22;;;;;;;;;;;;;;;12.37;63.15;96431.13;5053225;28;1124;-63
2022/11/12 02:24:07;;;;;;;;;;;;;;;12.36;63.23;96440.19;5053576;28;1029;-63
2022/11/12 02:26:34;;;;;;;;;;;;;;;12.35;63.20;96435.78;5053203;28;1117;-63
2022/11/12 02:29:00;;;;;;;;;;;;;;;12.32;63.65;96438.78;5053313;28;2048;-63
2022/11/12 02:31:26;;;;;;;;;;;;;;;12.28;63.69;96438.22;5053286;28;981;-63
2022/11/12 02:33:52;;;;;;;;;;;;;;;12.30;63.36;96444.28;5053162;28;1113;-63
2022/11/12 02:36:19;;;;;;;;;;;;;;;12.24;63.88;96442.16;5053125;28;1065;-63
2022/11/12 02:38:45;;;;;;;;;;;;;;;12.12;64.12;96433.38;5053031;28;1210;-63
2022/11/12 02:41:12;;;;;;;;;;;;;;;12.18;63.85;96440.88;5053237;28;1085;-63
2022/11/12 02:43:39;;;;;;;;;;;;;;;12.17;64.06;96430.28;5053133;28;1057;-63
2022/11/12 02:46:05;;;;;;;;;;;;;;;12.17;64.26;96431.13;5053099;28;1040;-63
2022/11/12 02:48:31;;;;;;;;;;;;;;;12.19;64.41;96431.84;5052741;28;1906;-63
2022/11/12 02:50:57;;;;;;;;;;;;;;;12.21;64.26;96429.88;5053123;28;1057;-62
2022/11/12 02:53:24;;;;;;;;;;;;;;;12.23;64.31;96435.94;5053122;28;1006;-63
2022/11/12 02:55:50;;;;;;;;;;;;;;;12.24;64.34;96437.63;5053006;28;1705;-63
2022/11/12 02:58:16;;;;;;;;;;;;;;;12.20;64.43;96440.72;5052934;28;997;-63
2022/11/12 03:00:42;;;;;;;;;;;;;;;12.20;64.93;96441.59;5053021;28;1045;-63
2022/11/12 03:03:08;;;;;;;;;;;;;;;12.21;64.84;96437.91;5054011;28;1041;-63
2022/11/12 03:05:34;;;;;;;;;;;;;;;12.26;64.13;96435.66;5056885;28;1112;-63
2022/11/12 03:08:05;;;;;;;;;;;;;;;12.13;64.27;96434.25;5057027;28;1914;-63
2022/11/12 03:10:31;;;;;;;;;;;;;;;12.07;64.64;96435.66;5056771;28;1108;-63
2022/11/12 03:12:59;;;;;;;;;;;;;;;12.00;64.65;96439.88;5056828;28;1046;-63
2022/11/12 03:15:25;;;;;;;;;;;;;;;12.01;65.46;96439.72;5056714;28;970;-63
2022/11/12 03:17:51;;;;;;;;;;;;;;;12.13;64.59;96440.44;5056678;28;1101;-63
2022/11/12 03:20:17;;;;;;;;;;;;;;;12.14;64.20;96436.78;5056776;28;1005;-63
2022/11/12 03:22:53;;;;;;;;;;;;;;;12.11;64.44;96426.34;5056871;28;1028;-63
2022/11/12 03:25:19;;;;;;;;;;;;;;;12.16;64.39;96431.25;5056685;28;1048;-63
2022/11/12 03:27:45;;;;;;;;;;;;;;;12.15;64.45;96432.28;5056476;28;1987;-63
2022/11/12 03:30:11;;;;;;;;;;;;;;;12.18;64.31;96435.53;5057046;28;966;-63
2022/11/12 03:32:37;;;;;;;;;;;;;;;12.13;64.76;96443.13;5056298;28;978;-63
2022/11/12 03:35:03;;;;;;;;;;;;;;;12.10;64.78;96446.94;5056640;28;998;-63
2022/11/12 03:37:29;;;;;;;;;;;;;;;12.06;64.95;96445.50;5038515;28;1135;-63
2022/11/12 03:39:55;;;;;;;;;;;;;;;12.08;64.84;96431.97;5056740;28;1062;-63
2022/11/12 03:42:21;;;;;;;;;;;;;;;12.11;65.07;96431.69;5056321;28;1058;-64
2022/11/12 03:44:47;;;;;;;;;;;;;;;12.16;64.50;96442.88;5056233;28;1065;-63
2022/11/12 03:47:13;;;;;;;;;;;;;;;12.23;64.17;96437.78;5055931;28;1910;-63
2022/11/12 03:49:39;;;;;;;;;;;;;;;12.19;64.01;96437.19;5056458;28;962;-63
2022/11/12 03:52:05;;;;;;;;;;;;;;;12.25;63.80;96433.94;5056064;28;1153;-63
2022/11/12 03:54:31;;;;;;;;;;;;;;;12.32;63.30;96433.41;5055974;28;1697;-63
2022/11/12 03:56:57;;;;;;;;;;;;;;;12.21;64.25;96429.88;5056112;28;1025;-63
2022/11/12 03:59:23;;;;;;;;;;;;;;;12.22;63.82;96430.72;5055975;28;974;-63
2022/11/12 04:01:49;;;;;;;;;;;;;;;12.19;64.21;96439.03;5055932;28;961;-64
2022/11/12 04:04:15;;;;;;;;;;;;;;;12.21;63.64;96437.91;5055797;28;1129;-63
2022/11/12 04:09:26;;;;;;;;;;;;;;;12.12;63.69;96438.75;5055695;28;1977;-63
2022/11/12 04:11:52;;;;;;;;;;;;;;;12.11;63.65;96445.09;5055772;28;922;-63
2022/11/12 04:14:18;;;;;;;;;;;;;;;12.12;63.80;96433.38;5055070;28;1065;-64
2022/11/12 04:22:13;;;;;;;;;;;;;;;12.17;63.19;96438.34;5055645;28;1044;-63
2022/11/12 04:27:29;;;;;;;;;;;;;;;12.16;63.22;96434.81;5055497;28;1910;-63
2022/11/12 04:32:51;;;;;;;;;;;;;;;12.17;63.44;96433.81;5055377;28;1066;-64
2022/11/12 04:35:19;;;;;;;;;;;;;;;12.18;62.94;96442.69;5037514;28;1002;-64
2022/11/12 04:37:46;;;;;;;;;;;;;;;12.07;63.25;96430.28;5055354;28;1178;-63
2022/11/12 04:45:57;;;;;;;;;;;;;;;11.84;63.73;96433.19;5055392;28;994;-63
2022/11/12 04:48:24;;;;;;;;;;;;;;;11.79;63.84;96422.00;5054826;28;1989;-63
2022/11/12 04:50:55;;;;;;;;;;;;;;;11.85;63.21;96424.13;5054997;28;1051;-63
2022/11/12 04:53:21;;;;;;;;;;;;;;;11.84;63.45;96429.66;5037292;28;1054;-63
2022/11/12 04:55:50;;;;;;;;;;;;;;;11.80;63.33;96422.84;5054767;28;1729;-63
2022/11/12 04:58:16;;;;;;;;;;;;;;;11.79;62.98;96423.84;5054695;28;1049;-63
2022/11/12 05:00:42;;;;;;;;;;;;;;;11.77;63.37;96434.69;5054895;28;1124;-63
2022/11/12 05:03:08;;;;;;;;;;;;;;;11.76;63.00;96442.88;5054788;28;1117;-63
2022/11/12 05:05:35;;;;;;;;;;;;;;;11.62;63.60;96444.09;5054775;28;982;-63
2022/11/12 05:08:01;;;;;;;;;;;;;;;11.66;63.34;96438.31;5036928;28;1910;-63
2022/11/12 05:10:28;;;;;;;;;;;;;;;11.61;63.24;96429.00;5054495;28;1058;-63
2022/11/12 05:12:54;;;;;;;;;;;;;;;11.63;63.32;96427.91;5054578;28;990;-63
2022/11/12 05:15:20;;;;;;;;;;;;;;;11.69;62.66;96437.22;5054505;28;1042;-64
2022/11/12 05:17:46;;;;;;;;;;;;;;;11.57;62.70;96435.63;5054693;28;980;-64
2022/11/12 05:20:12;;;;;;;;;;;;;;;11.50;63.04;96433.50;5036917;28;1029;-64
2022/11/12 05:22:38;;;;;;;;;;;;;;;11.50;62.92;96438.00;5054434;28;1029;-63
2022/11/12 05:25:05;;;;;;;;;;;;;;;11.44;63.00;96436.72;5054430;28;971;-63
2022/11/12 05:27:31;;;;;;;;;;;;;;;11.46;62.92;96433.91;5053041;28;1991;-63
2022/11/12 05:29:57;;;;;;;;;;;;;;;11.37;62.96;96445.44;5054476;28;991;-63
2022/11/12 05:32:23;;;;;;;;;;;;;;;11.32;63.12;96445.81;5054332;28;1056;-63
2022/11/12 05:34:49;;;;;;;;;;;;;;;11.33;63.18;96439.50;5054137;28;1152;-63
2022/11/12 05:37:16;;;;;;;;;;;;;;;11.29;63.21;96444.25;5054041;28;1198;-62
2022/11/12 05:39:42;;;;;;;;;;;;;;;11.35;63.06;96448.22;5054069;28;1140;-63
2022/11/12 05:42:08;;;;;;;;;;;;;;;11.38;63.10;96453.31;5053979;28;985;-63
2022/11/12 05:44:34;;;;;;;;;;;;;;;11.39;62.75;96457.69;5054106;28;973;-63
2022/11/12 05:47:00;;;;;;;;;;;;;;;11.33;63.21;96453.72;5036132;28;1105;-62
2022/11/12 05:49:26;;;;;;;;;;;;;;;11.23;63.33;96460.88;5053984;28;1972;-62
2022/11/12 05:51:52;;;;;;;;;;;;;;;11.23;63.60;96462.69;5053870;28;1117;-63
2022/11/12 05:54:18;;;;;;;;;;;;;;;11.31;63.05;96466.41;5053620;28;1709;-62
2022/11/12 05:56:45;;;;;;;;;;;;;;;11.29;63.13;96467.53;5053602;28;1062;-63
2022/11/12 05:59:12;;;;;;;;;;;;;;;11.24;63.43;96475.09;5053984;28;986;-63
2022/11/12 06:01:42;;;;;;;;;;;;;;;11.34;63.22;96475.97;5053802;28;986;-62
2022/11/12 06:04:09;;;;;;;;;;;;;;;11.34;63.04;96467.94;5036150;28;958;-63
2022/11/12 06:06:37;;;;;;;;;;;;;;;11.32;62.89;96480.63;5053932;28;1137;-63
2022/11/12 06:09:04;;;;;;;;;;;;;;;11.28;62.70;96476.53;5053592;28;1910;-64
2022/11/12 06:11:30;;;;;;;;;;;;;;;11.21;62.94;96481.56;5053359;28;1050;-63
2022/11/12 06:13:57;;;;;;;;;;;;;;;11.24;62.81;96485.81;5053457;28;1136;-63
2022/11/12 06:16:23;;;;;;;;;;;;;;;11.29;62.23;96489.78;5053727;28;1050;-63
2022/11/12 06:18:49;;;;;;;;;;;;;;;11.26;62.80;96498.06;5053746;28;1181;-63
2022/11/12 06:21:18;;;;;;;;;;;;;;;11.33;62.25;96501.06;5053226;28;1038;-62
2022/11/12 06:23:45;;;;;;;;;;;;;;;11.34;62.06;96505.44;5053278;28;1042;-62
2022/11/12 06:26:11;;;;;;;;;;;;;;;11.28;62.31;96500.63;5053268;28;1141;-63
2022/11/12 06:28:37;;;;;;;;;;;;;;;11.35;62.43;96501.78;5053124;28;1902;-63
2022/11/12 06:31:04;;;;;;;;;;;;;;;11.35;61.65;96496.44;5035663;28;1121;-63
2022/11/12 06:33:30;;;;;;;;;;;;;;;11.38;61.54;96501.50;5053239;28;981;-62
2022/11/12 06:36:01;;;;;;;;;;;;;;;11.44;61.22;96492.97;5053355;28;963;-63
2022/11/12 06:38:31;;;;;;;;;;;;;;;11.43;60.93;96496.59;5052555;28;1191;-64
2022/11/12 06:40:58;;;;;;;;;;;;;;;11.45;61.05;96500.00;5053431;28;1033;-63
2022/11/12 06:43:24;;;;;;;;;;;;;;;11.45;60.87;96500.00;5053017;28;1058;-62
2022/11/12 06:45:51;;;;;;;;;;;;;;;11.48;60.68;96505.09;5053049;28;922;-62
2022/11/12 06:48:17;;;;;;;;;;;;;;;11.55;60.37;96502.72;5052810;28;1989;-62
2022/11/12 06:50:44;;;;;;;;;;;;;;;11.56;60.25;96491.03;5053053;28;1039;-63
2022/11/12 06:53:10;;;;;;;;;;;;;;;11.67;60.00;96500.81;5052987;28;1037;-63
2022/11/12 06:55:36;;;;;;;;;;;;;;;11.77;59.14;96493.66;5035404;28;1634;-63
2022/11/12 06:58:02;;;;;;;;;;;;;;;11.78;59.69;96497.16;5053160;28;1032;-61
2022/11/12 07:00:28;;;;;;;;;;;;;;;12.46;57.45;96492.88;5053034;28;983;-63
2022/11/12 07:02:54;;;;;;;;;;;;;;;13.44;55.38;96500.84;5053058;28;974;-63
2022/11/12 07:05:20;;;;;;;;;;;;;;;14.24;53.25;96493.09;5052887;28;1034;-63
2022/11/12 07:07:46;;;;;;;;;;;;;;;14.01;53.31;96498.06;5052783;28;1903;-63
2022/11/12 07:10:12;;;;;;;;;;;;;;;13.63;53.63;96483.78;5053161;28;1041;-63
2022/11/12 07:12:39;;;;;;;;;;;;;;;13.17;55.40;96494.38;5052820;28;1109;-64
2022/11/12 07:15:05;;;;;;;;;;;;;;;13.39;54.34;96497.72;5053003;28;954;-63
2022/11/12 07:17:31;;;;;;;;;;;;;;;13.08;55.23;96488.00;5052856;28;1141;-63
2022/11/12 07:19:57;;;;;;;;;;;;;;;12.95;55.26;96495.50;5035151;28;1062;-64
2022/11/12 07:22:23;;;;;;;;;;;;;;;12.91;55.53;96494.13;5052524;28;1054;-64
2022/11/12 07:24:49;;;;;;;;;;;;;;;12.89;56.48;96490.72;5053011;28;1057;-64
2022/11/12 07:27:15;;;;;;;;;;;;;;;12.89;55.78;96501.47;5052849;28;1024;-64
2022/11/12 07:29:41;;;;;;;;;;;;;;;12.87;55.48;96498.91;5052878;28;1009;-64
2022/11/12 07:32:07;;;;;;;;;;;;;;;13.18;55.04;96496.03;5052811;28;987;-62
2022/11/12 07:34:33;;;;;;;;;;;;;;;13.39;54.20;96487.84;5052567;28;1053;-62
2022/11/12 07:36:59;;;;;;;;;;;;;;;15.43;49.87;96504.47;5035026;28;1028;-62
2022/11/12 07:39:25;;;;;;;;;;;;;;;17.23;45.28;96502.56;5052373;28;1198;-62
2022/11/12 07:41:51;;;;;;;;;;;;;;;17.92;43.54;96498.41;5052806;28;1025;-62
2022/11/12 07:44:17;;;;;;;;;;;;;;;18.54;42.20;96505.75;5052628;28;1018;-62
2022/11/12 07:46:43;;;;;;;;;;;;;;;19.34;40.32;96508.28;5052246;28;1377;-63
2022/11/12 07:49:09;;;;;;;;;;;;;;;18.16;42.90;96502.03;5052572;28;1914;-63
2022/11/12 07:51:35;;;;;;;;;;;;;;;17.33;44.43;96495.97;5055502;28;1125;-62
2022/11/12 07:54:01;;;;;;;;;;;;;;;16.35;46.29;96501.22;5055989;28;1681;-63
2022/11/12 07:56:28;;;;;;;;;;;;;;;15.64;48.12;96497.03;5056146;28;1002;-63
2022/11/12 07:58:54;;;;;;;;;;;;;;;15.06;49.68;96503.84;5055989;28;1066;-62
2022/11/12 08:01:33;;;;;;;;;;;;;;;14.83;49.82;96515.09;5055902;28;1121;-62
2022/11/12 08:04:00;;;;;;;;;;;;;;;14.48;50.05;96507.84;5038243;28;1070;-62
2022/11/12 08:06:27;;;;;;;;;;;;;;;14.25;50.66;96495.66;5055713;28;1165;-62
2022/11/12 08:08:53;;;;;;;;;;;;;;;14.09;51.10;96500.00;5055944;28;1910;-63
2022/11/12 08:11:19;;;;;;;;;;;;;;;13.92;51.68;96498.94;5055899;28;1060;-61
2022/11/12 08:13:46;;;;;;;;;;;;;;;13.83;51.44;96496.16;5055882;28;1057;-62
2022/11/12 08:16:12;;;;;;;;;;;;;;;13.90;51.14;96488.34;5055819;28;1095;-62
2022/11/12 08:18:38;;;;;;;;;;;;;;;14.04;51.06;96495.09;5037957;28;1037;-61
2022/11/12 08:21:05;;;;;;;;;;;;;;;14.57;50.19;96494.34;5055529;28;1053;-63
2022/11/12 08:23:31;;;;;;;;;;;;;;;14.82;49.31;96486.50;5055689;28;993;-62
2022/11/12 08:25:58;;;;;;;;;;;;;;;14.55;49.86;96496.31;5055495;28;1089;-63
2022/11/12 08:28:24;;;;;;;;;;;;;;;14.23;50.29;96492.28;5055298;28;1902;-62
2022/11/12 08:30:50;;;;;;;;;;;;;;;14.06;50.83;96496.63;5055502;28;1216;-63
2022/11/12 08:33:16;;;;;;;;;;;;;;;13.89;51.69;96492.03;5055296;28;1321;-62
2022/11/12 08:35:43;;;;;;;;;;;;;;;13.82;51.71;96489.09;5055283;28;990;-63
2022/11/12 08:38:10;;;;;;;;;;;;;;;13.75;51.39;96490.66;5055188;28;1140;-62
2022/11/12 08:40:36;;;;;;;;;;;;;;;13.61;51.41;96493.84;5055372;28;966;-62
2022/11/12 08:43:03;;;;;;;;;;;;;;;13.48;51.95;96494.16;5055360;28;1053;-63
2022/11/12 08:45:34;;;;;;;;;;;;;;;13.55;51.71;96486.38;5055529;28;1037;-63
2022/11/12 08:48:04;;;;;;;;;;;;;;;13.56;51.70;96490.75;5054880;28;1974;-63
2022/11/12 08:50:31;;;;;;;;;;;;;;;13.49;51.24;96487.81;5055279;28;1041;-63
2022/11/12 08:53:01;;;;;;;;;;;;;;;13.50;51.55;96496.72;5037315;28;1058;-63
2022/11/12 08:55:28;;;;;;;;;;;;;;;13.51;51.73;96488.50;5054896;28;1614;-63
2022/11/12 08:57:54;;;;;;;;;;;;;;;13.59;51.88;96483.25;5054845;28;1047;-62
2022/11/12 09:00:20;;;;;;;;;;;;;;;13.53;52.00;96489.22;5054564;28;1342;-62
2022/11/12 09:02:46;;;;;;;;;;;;;;;13.57;51.28;96492.47;5054596;28;1021;-62
2022/11/12 09:05:12;;;;;;;;;;;;;;;13.48;50.88;96492.31;5054979;28;1085;-62
2022/11/12 09:07:38;;;;;;;;;;;;;;;13.40;51.64;96499.44;5054590;28;1906;-62
2022/11/12 09:10:05;;;;;;;;;;;;;;;13.50;51.22;96494.03;5054658;28;1069;-62
2022/11/12 09:12:31;;;;;;;;;;;;;;;13.49;50.96;96498.56;5054622;28;1059;-62
2022/11/12 09:14:57;;;;;;;;;;;;;;;13.54;51.11;96496.25;5054637;28;1029;-63
2022/11/12 09:17:23;;;;;;;;;;;;;;;13.51;50.53;96499.25;5054387;28;1064;-62
2022/11/12 09:19:49;;;;;;;;;;;;;;;13.44;49.84;96490.94;5054696;28;1025;-63
2022/11/12 09:22:15;;;;;;;;;;;;;;;13.52;49.25;96495.56;5036651;28;1141;-63
2022/11/12 09:24:41;;;;;;;;;;;;;;;13.58;49.10;96489.63;5054580;28;1046;-62
2022/11/12 09:27:07;;;;;;;;;;;;;;;13.62;48.12;96493.72;5054365;28;1042;-62
2022/11/12 09:29:33;;;;;;;;;;;;;;;13.44;48.40;96485.56;5054236;28;1902;-61
2022/11/12 09:31:59;;;;;;;;;;;;;;;13.47;49.18;96479.06;5054262;28;1036;-61
2022/11/12 09:34:25;;;;;;;;;;;;;;;13.55;49.12;96478.31;5054343;28;1052;-61
2022/11/12 09:36:51;;;;;;;;;;;;;;;13.59;49.10;96477.88;5054177;28;1105;-61
2022/11/12 09:39:17;;;;;;;;;;;;;;;13.66;49.67;96462.84;5053951;28;1202;-61
2022/11/12 09:41:43;;;;;;;;;;;;;;;13.61;48.72;96469.66;5054214;28;985;-61
2022/11/12 09:44:14;;;;;;;;;;;;;;;13.63;48.75;96467.69;5054074;28;1096;-61
2022/11/12 09:46:46;;;;;;;;;;;;;;;13.66;48.92;96456.63;5053751;28;1212;-61
2022/11/12 09:49:18;;;;;;;;;;;;;;;13.66;48.77;96468.22;5053903;28;1894;-61
2022/11/12 09:51:50;;;;;;;;;;;;;;;13.74;48.79;96466.66;5054142;28;1005;-61
2022/11/12 09:54:19;;;;;;;;;;;;;;;13.68;48.84;96468.09;5053838;28;1634;-61
2022/11/12 09:56:46;;;;;;;;;;;;;;;13.67;48.97;96477.13;5053866;28;982;-61
2022/11/12 09:59:12;;;;;;;;;;;;;;;13.65;48.76;96473.75;5053691;28;1038;-61
2022/11/12 10:01:43;;;;;;;;;;;;;;;13.61;48.42;96475.03;5053858;28;1062;-61
2022/11/12 10:04:15;;;;;;;;;;;;;;;13.71;48.56;96473.16;5053660;28;1070;-61
2022/11/12 10:06:53;;;;;;;;;;;;;;;13.83;47.32;96465.75;5053816;28;978;-61
2022/11/12 10:09:23;;;;;;;;;;;;;;;13.83;47.91;96463.91;5053523;28;1910;-61
2022/11/12 10:14:36;;;;;;;;;;;;;;;13.83;47.93;96468.44;5053330;28;970;-61
2022/11/12 10:17:32;;;;;;;;;;;;;;;13.67;48.12;96463.69;5053514;28;1053;-61
2022/11/12 10:20:05;;;;;;;;;;;;;;;13.60;47.92;96457.22;5040205;28;1640;-61
2022/11/12 10:22:31;;;;;;;;;;;;;;;13.57;47.88;96462.91;5053585;28;1056;-61
2022/11/12 10:24:58;;;;;;;;;;;;;;;13.61;49.09;96458.91;5053571;28;1036;-61
2022/11/12 10:27:31;;;;;;;;;;;;;;;13.70;48.49;96460.72;5053208;28;1983;-61
2022/11/12 10:30:02;;;;;;;;;;;;;;;13.77;48.04;96459.13;5053759;28;1065;-61
2022/11/12 10:32:28;;;;;;;;;;;;;;;13.73;47.63;96457.72;5053253;28;1124;-61
2022/11/12 10:34:54;;;;;;;;;;;;;;;13.73;48.43;96467.63;5051918;28;1644;-61
2022/11/12 10:37:27;;;;;;;;;;;;;;;13.73;48.58;96465.78;5030133;28;1540;-62
2022/11/12 10:39:53;;;;;;;;;;;;;;;13.86;48.58;96457.38;5046907;28;1384;-62
2022/11/12 10:42:20;;;;;;;;;;;;;;;13.98;48.55;96472.31;5053226;28;1010;-62
2022/11/12 10:44:47;;;;;;;;;;;;;;;13.99;48.84;96462.41;5051563;28;1584;-62
2022/11/12 10:47:15;;;;;;;;;;;;;;;14.04;48.26;96460.13;5052508;28;1325;-63
2022/11/12 10:49:42;;;;;;;;;;;;;;;14.05;47.80;96467.19;5053317;28;1910;-63
2022/11/12 10:52:21;;;;;;;;;;;;;;;13.99;48.13;96462.41;5035731;28;1085;-62
2022/11/12 10:54:47;;;;;;;;;;;;;;;13.83;47.79;96460.38;5053126;28;1629;-62
2022/11/12 10:57:16;;;;;;;;;;;;;;;13.82;48.36;96466.75;5053182;28;1045;-61
2022/11/12 10:59:43;;;;;;;;;;;;;;;13.72;49.34;96461.41;5052982;28;1066;-61
2022/11/12 11:02:16;;;;;;;;;;;;;;;13.70;49.10;96465.22;5051648;28;1543;-61
2022/11/12 11:04:42;;;;;;;;;;;;;;;13.69;48.84;96460.84;5051812;28;1071;-61
2022/11/12 11:07:14;;;;;;;;;;;;;;;13.61;48.62;96458.91;5053006;28;1039;-61
2022/11/12 11:09:51;;;;;;;;;;;;;;;13.61;48.94;96454.38;5053011;28;1906;-62
2022/11/12 11:12:33;;;;;;;;;;;;;;;13.62;49.61;96457.91;5052838;28;1109;-62
2022/11/12 11:15:06;;;;;;;;;;;;;;;13.71;49.22;96454.31;5053128;28;1045;-62
2022/11/12 11:17:33;;;;;;;;;;;;;;;13.70;49.08;96457.16;5052934;28;962;-62
2022/11/12 11:20:00;;;;;;;;;;;;;;;13.64;48.95;96462.16;5053046;28;1044;-62
2022/11/12 11:22:26;;;;;;;;;;;;;;;13.61;49.38;96456.22;5052903;28;1060;-61
2022/11/12 11:25:03;;;;;;;;;;;;;;;13.52;49.37;96451.72;5055065;28;1054;-62
2022/11/12 11:27:32;;;;;;;;;;;;;;;13.47;49.50;96452.19;5056648;28;2410;-61
2022/11/12 11:30:01;;;;;;;;;;;;;;;13.46;49.58;96459.38;5056866;28;958;-62
2022/11/12 11:32:36;;;;;;;;;;;;;;;13.44;49.62;96463.22;5051240;28;1598;-61
2022/11/12 11:35:05;;;;;;;;;;;;;;;13.54;49.78;96455.94;5047848;28;1423;-62
2022/11/12 11:37:37;;;;;;;;;;;;;;;13.58;49.69;96468.13;5038008;28;1434;-62
2022/11/12 11:40:05;;;;;;;;;;;;;;;13.57;49.20;96452.16;5050491;28;1362;-61
2022/11/12 11:43:00;;;;;;;;;;;;;;;13.60;49.14;96447.31;5047893;28;1117;-61
2022/11/12 11:45:32;;;;;;;;;;;;;;;13.72;49.54;96447.13;5035749;28;1996;-61
2022/11/12 11:48:15;;;;;;;;;;;;;;;13.72;49.49;96449.81;5049586;28;2013;-62
2022/11/12 11:50:47;;;;;;;;;;;;;;;13.73;49.44;96456.88;5053562;28;1672;-61
2022/11/12 11:53:25;;;;;;;;;;;;;;;13.62;49.79;96453.41;5048304;28;1527;-61
2022/11/12 11:56:10;;;;;;;;;;;;;;;13.48;49.72;96462.75;5054133;28;1685;-62
2022/11/12 11:58:39;;;;;;;;;;;;;;;13.41;49.72;96455.44;5048449;28;1773;-62
2022/11/12 12:01:25;;;;;;;;;;;;;;;13.48;49.53;96453.88;5050736;28;1040;-61
2022/11/12 12:04:10;;;;;;;;;;;;;;;13.40;49.88;96451.09;5055660;28;1720;-62
2022/11/12 12:06:55;;;;;;;;;;;;;;;13.52;49.97;96457.94;5055230;28;1456;-61
2022/11/12 12:09:27;;;;;;;;;;;;;;;13.58;49.78;96453.81;5055908;28;2365;-61
2022/11/12 12:12:12;;;;;;;;;;;;;;;13.64;50.02;96448.72;5055253;28;1125;-61
2022/11/12 12:14:45;;;;;;;;;;;;;;;13.70;49.69;96446.41;5055704;28;1113;-63
2022/11/12 12:17:18;;;;;;;;;;;;;;;13.71;49.34;96448.13;5055680;28;1062;-63
2022/11/12 12:20:01;;;;;;;;;;;;;;;13.73;48.91;96451.50;5054099;28;970;-63
2022/11/12 12:22:38;;;;;;;;;;;;;;;13.77;49.44;96440.31;5054146;28;982;-63
2022/11/12 12:25:26;;;;;;;;;;;;;;;13.84;49.62;96438.69;5054140;28;970;-62
2022/11/12 12:28:06;;;;;;;;;;;;;;;13.91;49.16;96438.13;5053891;28;1907;-63
2022/11/12 12:30:35;;;;;;;;;;;;;;;13.89;49.08;96443.63;5054146;28;970;-64
2022/11/12 12:33:07;;;;;;;;;;;;;;;13.89;49.23;96438.25;5053987;28;1102;-63
2022/11/12 12:35:50;;;;;;;;;;;;;;;13.96;49.44;96439.38;5054688;28;1146;-63
2022/11/12 12:38:35;;;;;;;;;;;;;;;13.90;49.22;96439.09;5055110;28;1214;-63
2022/11/12 12:41:15;;;;;;;;;;;;;;;13.78;49.05;96447.38;5055465;28;1018;-62
2022/11/12 12:43:53;;;;;;;;;;;;;;;13.71;49.89;96438.19;5037552;28;1529;-62
2022/11/12 12:46:21;;;;;;;;;;;;;;;13.70;49.68;96446.41;5055048;28;1037;-62
2022/11/12 12:48:50;;;;;;;;;;;;;;;13.73;49.82;96446.97;5055369;28;1914;-62
2022/11/12 12:51:17;;;;;;;;;;;;;;;13.85;49.62;96440.41;5055132;28;1056;-62
2022/11/12 12:53:43;;;;;;;;;;;;;;;13.89;49.63;96437.41;5054880;28;1665;-62
2022/11/12 12:56:09;;;;;;;;;;;;;;;13.90;49.32;96434.56;5055103;28;1010;-62
2022/11/12 12:58:45;;;;;;;;;;;;;;;13.89;48.83;96426.63;5054906;28;1032;-62
2022/11/12 13:01:23;;;;;;;;;;;;;;;13.88;49.52;96409.66;5054789;28;1058;-62
2022/11/12 13:04:02;;;;;;;;;;;;;;;13.91;49.63;96416.59;5054994;28;983;-62
2022/11/12 13:06:52;;;;;;;;;;;;;;;13.84;49.65;96417.19;5054694;28;1118;-62
2022/11/12 13:09:18;;;;;;;;;;;;;;;13.82;49.92;96418.34;5046607;28;1918;-62
2022/11/12 13:14:38;;;;;;;;;;;;;;;13.86;50.25;96417.03;5054801;28;981;-62
2022/11/12 13:17:04;;;;;;;;;;;;;;;13.95;51.13;96412.63;5054751;28;1204;-62
2022/11/12 13:19:37;;;;;;;;;;;;;;;14.00;50.50;96419.22;5054413;28;1121;-62
2022/11/12 13:22:17;;;;;;;;;;;;;;;14.01;51.04;96418.22;5054407;28;986;-62
2022/11/12 13:25:01;;;;;;;;;;;;;;;14.04;50.93;96422.47;5054408;28;1038;-62
2022/11/12 13:27:51;;;;;;;;;;;;;;;14.05;50.15;96418.75;5054399;28;989;-61
2022/11/12 13:30:23;;;;;;;;;;;;;;;14.03;50.72;96418.91;5028620;28;1154;-61